Date,TemperatureHighF,TemperatureAvgF,TemperatureLowF,DewpointHighF,DewpointAvgF,DewpointLowF,HumidityHigh,HumidityAvg,HumidityLow,PressureMaxIn,PressureMinIn,WindSpeedMaxMPH,WindSpeedAvgMPH,GustSpeedMaxMPH,PrecipitationSumIn
2013-1-1,13,4,-5,-100,-100,-100,0,0,100,0.00,40.00,0,-999,0,0.00
2013-1-2,27,15,4,-100,-100,-100,0,0,100,0.00,40.00,0,-999,0,0.00
2013-1-3,27,15,9,-100,-100,-100,0,0,100,0.00,40.00,0,-999,0,0.00
2013-1-4,30,20,10,-100,-100,-100,0,0,100,0.00,40.00,0,-999,0,0.00
2013-1-5,36,25,19,-100,-100,-100,0,0,100,0.00,40.00,0,-999,0,0.00
2013-1-6,25,17,9,-100,-100,-100,0,0,100,0.00,40.00,0,-999,0,0.00
2013-1-7,39,29,21,-100,-100,-100,0,0,100,0.00,40.00,0,-999,0,0.00
2013-1-8,42,30,21,-100,-100,-100,0,0,100,0.00,40.00,0,-999,0,0.00
2013-1-9,42,33,28,-100,-100,-100,0,0,100,0.00,40.00,0,-999,0,0.00
2013-1-10,38,32,28,-100,-100,-100,0,0,100,0.00,40.00,0,-999,0,0.00
2013-1-11,45,38,32,-100,-100,-100,0,0,100,0.00,40.00,0,-999,0,0.00
2013-1-12,44,19,11,-100,-100,-100,0,0,100,0.00,40.00,0,-999,0,0.00
2013-1-13,14,9,6,-100,-100,-100,0,0,100,0.00,40.00,0,-999,0,0.00
2013-1-14,28,18,7,-100,-100,-100,0,0,100,0.00,40.00,0,-999,0,0.00
2013-1-15,31,22,14,-100,-100,-100,0,0,100,0.00,40.00,0,-999,0,0.00
2013-1-16,43,31,18,-100,-100,-100,0,0,100,0.00,40.00,0,-999,0,0.00
2013-1-17,32,22,11,-100,-100,-100,0,0,100,0.00,40.00,0,-999,0,0.00
2013-1-18,48,35,25,-100,-100,-100,0,0,100,0.00,40.00,0,-999,0,0.00
2013-1-19,47,34,13,-100,-100,-100,0,0,100,0.00,40.00,0,-999,0,0.00
2013-1-20,13,7,3,-100,-100,-100,0,0,100,0.00,40.00,0,-999,0,0.00
2013-1-21,3,-2,-7,-100,-100,-100,0,0,100,0.00,40.00,0,-999,0,0.00
2013-1-22,14,10,-1,-100,-100,-100,0,0,100,0.00,40.00,0,-999,0,0.00
2013-1-23,22,13,1,-100,-100,-100,0,0,100,0.00,40.00,0,-999,0,0.00
2013-1-24,18,10,1,-100,-100,-100,0,0,100,0.00,40.00,0,-999,0,0.00
2013-1-25,32,21,7,-100,-100,-100,0,0,100,0.00,40.00,0,-999,0,0.00
2013-1-26,30,18,6,-100,-100,-100,0,0,100,0.00,40.00,0,-999,0,0.00
2013-1-27,32,29,26,-100,-100,-100,0,0,100,0.00,40.00,0,-999,0,0.00
2013-1-28,40,33,30,-100,-100,-100,0,0,100,0.00,40.00,0,-999,0,0.00
2013-1-29,49,34,28,-100,-100,-100,0,0,100,0.00,40.00,0,-999,0,0.00
2013-1-30,28,19,14,-100,-100,-100,0,0,100,0.00,40.00,0,-999,0,0.00
2013-1-31,3,1,-3,-100,-100,-100,0,0,100,0.00,40.00,0,-999,0,0.00
2013-2-1,21,5,-7,-100,-100,-100,0,0,100,0.00,40.00,0,-999,0,0.00
2013-2-2,29,16,10,-100,-100,-100,0,0,100,0.00,40.00,0,-999,0,0.00
2013-2-3,30,23,10,-100,-100,-100,0,0,100,0.00,40.00,0,-999,0,0.00
2013-2-4,25,20,14,-100,-100,-100,0,0,100,0.00,40.00,0,-999,0,0.00
2013-2-5,35,29,20,-100,-100,-100,0,0,100,0.00,40.00,0,-999,0,0.00
2013-2-6,39,30,21,-100,-100,-100,0,0,100,0.00,40.00,0,-999,0,0.00
2013-2-7,36,28,24,-100,-100,-100,0,0,100,0.00,40.00,0,-999,0,0.00
2013-2-8,29,24,21,-100,-100,-100,0,0,100,0.00,40.00,0,-999,0,0.00
2013-2-9,32,28,24,-100,-100,-100,0,0,100,0.00,40.00,0,-999,0,0.00
2013-2-10,40,33,28,-100,-100,-100,0,0,100,0.00,40.00,0,-999,0,0.00
2013-2-11,28,25,23,-100,-100,-100,0,0,100,0.00,40.00,0,-999,0,0.00
2013-2-12,42,31,21,-100,-100,-100,0,0,100,0.00,40.00,0,-999,0,0.00
2013-2-13,47,35,24,-100,-100,-100,0,0,100,0.00,40.00,0,-999,0,0.00
2013-2-14,36,30,20,-100,-100,-100,0,0,100,0.00,40.00,0,-999,0,0.00
2013-2-15,24,18,12,-100,-100,-100,0,0,100,0.00,40.00,0,-999,0,0.00
2013-2-16,32,21,10,-100,-100,-100,0,0,100,0.00,40.00,0,-999,0,0.00
2013-2-17,41,27,16,-100,-100,-100,0,0,100,0.00,40.00,0,-999,0,0.00
2013-2-18,37,27,11,-100,-100,-100,0,0,100,0.00,40.00,0,-999,0,0.00
2013-2-19,18,11,3,-100,-100,-100,0,0,100,0.00,40.00,0,-999,0,0.00
2013-2-20,21,15,-2,-100,-100,-100,0,0,100,0.00,40.00,0,-999,0,0.00
2013-2-21,22,18,14,-100,-100,-100,0,0,100,0.00,40.00,0,-999,0,0.00
2013-2-22,25,21,19,-100,-100,-100,0,0,100,0.00,40.00,0,-999,0,0.00
2013-2-23,30,20,8,-100,-100,-100,0,0,100,0.00,40.00,0,-999,0,0.00
2013-2-24,40,24,10,-100,-100,-100,0,0,100,0.00,40.00,0,-999,0,0.00
2013-2-25,38,31,25,-100,-100,-100,0,0,100,0.00,40.00,0,-999,0,0.00
2013-2-26,28,26,25,-100,-100,-100,0,0,100,0.00,40.00,0,-999,0,0.00
2013-2-27,26,24,20,-100,-100,-100,0,0,100,0.00,40.00,0,-999,0,0.00
2013-2-28,27,23,17,-100,-100,-100,0,0,100,0.00,40.00,0,-999,0,0.00
2013-3-1,25,23,21,-100,-100,-100,0,0,100,0.00,40.00,0,-999,0,0.00
2013-3-2,27,19,7,-100,-100,-100,0,0,100,0.00,40.00,0,-999,0,0.00
2013-3-3,30,26,21,-100,-100,-100,0,0,100,0.00,40.00,0,-999,0,0.00
2013-3-4,31,28,23,-100,-100,-100,0,0,100,0.00,40.00,0,-999,0,0.00
2013-3-5,29,25,21,-100,-100,-100,0,0,100,0.00,40.00,0,-999,0,0.00
2013-3-6,24,21,16,-100,-100,-100,0,0,100,0.00,40.00,0,-999,0,0.00
2013-3-7,29,22,7,-100,-100,-100,0,0,100,0.00,40.00,0,-999,0,0.00
2013-3-8,37,29,21,-100,-100,-100,0,0,100,0.00,40.00,0,-999,0,0.00
2013-3-9,37,34,32,-100,-100,-100,0,0,100,0.00,40.00,0,-999,0,0.00
2013-3-10,34,31,27,-100,-100,-100,0,0,100,0.00,40.00,0,-999,0,0.00
2013-3-11,27,23,20,-100,-100,-100,0,0,100,0.00,40.00,0,-999,0,0.00
2013-3-12,28,22,16,-100,-100,-100,0,0,100,0.00,40.00,0,-999,0,0.00
2013-3-13,27,19,10,-100,-100,-100,0,0,100,0.00,40.00,0,-999,0,0.00
2013-3-14,41,31,22,-100,-100,-100,0,0,100,0.00,40.00,0,-999,0,0.00
2013-3-15,44,34,29,-100,-100,-100,0,0,100,0.00,40.00,0,-999,0,0.00
2013-3-16,31,27,22,-100,-100,-100,0,0,100,0.00,40.00,0,-999,0,0.00
2013-3-17,36,27,18,-100,-100,-100,0,0,100,0.00,40.00,0,-999,0,0.00
2013-3-18,29,24,16,-100,-100,-100,0,0,100,0.00,40.00,0,-999,0,0.00
2013-3-19,29,18,10,-100,-100,-100,0,0,100,0.00,40.00,0,-999,0,0.00
2013-3-20,21,16,10,-100,-100,-100,0,0,100,0.00,40.00,0,-999,0,0.00
2013-3-21,29,20,10,-100,-100,-100,0,0,100,0.00,40.00,0,-999,0,0.00
2013-3-22,35,26,16,-100,-100,-100,0,0,100,0.00,40.00,0,-999,0,0.00
2013-3-23,32,28,24,-100,-100,-100,0,0,100,0.00,40.00,0,-999,0,0.00
2013-3-24,29,25,23,-100,-100,-100,0,0,100,0.00,40.00,0,-999,0,0.00
2013-3-25,32,27,23,-100,-100,-100,0,0,100,0.00,40.00,0,-999,0,0.00
2013-3-26,33,26,19,-100,-100,-100,0,0,100,0.00,40.00,0,-999,0,0.00
2013-3-27,43,33,23,-100,-100,-100,0,0,100,0.00,40.00,0,-999,0,0.00
2013-3-28,53,37,27,-100,-100,-100,0,0,100,0.00,40.00,0,-999,0,0.00
2013-3-29,58,46,29,-100,-100,-100,0,0,100,0.00,40.00,0,-999,0,0.00
2013-3-30,54,45,41,-100,-100,-100,0,0,100,0.00,40.00,0,-999,0,0.00
2013-3-31,45,37,26,-100,-100,-100,0,0,100,0.00,40.00,0,-999,0,0.00
2013-4-1,33,27,18,-100,-100,-100,0,0,100,0.00,40.00,0,-999,0,0.00
2013-4-2,40,31,21,-100,-100,-100,0,0,100,0.00,40.00,0,-999,0,0.00
2013-4-3,47,36,25,-100,-100,-100,0,0,100,0.00,40.00,0,-999,0,0.00
2013-4-4,56,41,29,-100,-100,-100,0,0,100,0.00,40.00,0,-999,0,0.00
2013-4-5,54,43,28,-100,-100,-100,0,0,100,0.00,40.00,0,-999,0,0.00
2013-4-6,61,52,40,-100,-100,-100,0,0,100,0.00,40.00,0,-999,0,0.00
2013-4-7,59,44,32,-100,-100,-100,0,0,100,0.00,40.00,0,-999,0,0.00
2013-4-8,73,60,45,-100,-100,-100,0,0,100,0.00,40.00,0,-999,0,0.00
2013-4-9,54,45,38,-100,-100,-100,0,0,100,0.00,40.00,0,-999,0,0.00
2013-4-10,36,35,34,-100,-100,-100,0,0,100,0.00,40.00,0,-999,0,0.00
2013-4-11,39,35,33,-100,-100,-100,0,0,100,0.00,40.00,0,-999,0,0.00
2013-4-12,34,32,29,-100,-100,-100,0,0,100,0.00,40.00,0,-999,0,0.00
2013-4-13,45,34,27,-100,-100,-100,0,0,100,0.00,40.00,0,-999,0,0.00
2013-4-14,63,46,36,-100,-100,-100,0,0,100,0.00,40.00,0,-999,0,0.00
2013-4-15,47,38,34,-100,-100,-100,0,0,100,0.00,40.00,0,-999,0,0.00
2013-4-16,47,35,29,-100,-100,-100,0,0,100,0.00,40.00,0,-999,0,0.00
2013-4-17,43,38,35,-100,-100,-100,0,0,100,0.00,40.00,0,-999,0,0.00
2013-4-18,37,33,30,-100,-100,-100,0,0,100,0.00,40.00,0,-999,0,0.00
2013-4-19,36,30,26,-100,-100,-100,0,0,100,0.00,40.00,0,-999,0,0.00
2013-4-20,46,35,23,-100,-100,-100,0,0,100,0.00,40.00,0,-999,0,0.00
2013-4-21,64,48,36,-100,-100,-100,0,0,100,0.00,40.00,0,-999,0,0.00
2013-4-22,60,48,33,-100,-100,-100,0,0,100,0.00,40.00,0,-999,0,0.00
2013-4-23,37,31,28,-100,-100,-100,0,0,100,0.00,40.00,0,-999,0,0.00
2013-4-24,51,36,24,-100,-100,-100,0,0,100,0.00,40.00,0,-999,0,0.00
2013-4-25,60,43,29,-100,-100,-100,0,0,100,0.00,40.00,0,-999,0,0.00
2013-4-26,65,54,45,-100,-100,-100,0,0,100,0.00,40.00,0,-999,0,0.00
2013-4-27,67,54,42,-100,-100,-100,0,0,100,0.00,40.00,0,-999,0,0.00
2013-4-28,75,58,43,-100,-100,-100,0,0,100,0.00,40.00,0,-999,0,0.00
2013-4-29,76,64,51,-100,-100,-100,0,0,100,0.00,40.00,0,-999,0,0.00
2013-4-30,76,67,52,-100,-100,-100,0,0,100,0.00,40.00,0,-999,0,0.00
2013-5-1,52,44,33,-100,-100,-100,0,0,100,0.00,40.00,0,-999,0,0.00
2013-5-2,33,30,29,-100,-100,-100,0,0,100,0.00,40.00,0,-999,0,0.00
2013-5-3,30,29,29,-100,-100,-100,0,0,100,0.00,40.00,0,-999,0,0.00
2013-5-4,42,36,29,-100,-100,-100,0,0,100,0.00,40.00,0,-999,0,0.00
2013-5-5,54,45,38,-100,-100,-100,0,0,100,0.00,40.00,0,-999,0,0.00
2013-5-6,69,54,40,-100,-100,-100,0,0,100,0.00,40.00,0,-999,0,0.00
2013-5-7,76,60,47,-100,-100,-100,0,0,100,0.00,40.00,0,-999,0,0.00
2013-5-8,73,60,49,-100,-100,-100,0,0,100,0.00,40.00,0,-999,0,0.00
2013-5-9,62,56,50,-100,-100,-100,0,0,100,0.00,40.00,0,-999,0,0.00
2013-5-10,62,51,43,-100,-100,-100,0,0,100,0.00,40.00,0,-999,0,0.00
2013-5-11,52,48,39,-100,-100,-100,0,0,100,0.00,40.00,0,-999,0,0.00
2013-5-12,58,46,31,-100,-100,-100,0,0,100,0.00,40.00,0,-999,0,0.00
2013-5-13,73,57,37,-100,-100,-100,0,0,100,0.00,40.00,0,-999,0,0.00
2013-5-14,93,75,58,-100,-100,-100,0,0,100,0.00,40.00,0,-999,0,0.00
2013-5-15,79,68,55,-100,-100,-100,0,0,100,0.00,40.00,0,-999,0,0.00
2013-5-16,80,68,51,-100,-100,-100,0,0,100,0.00,40.00,0,-999,0,0.00
2013-5-17,79,69,60,-100,-100,-100,0,0,100,0.00,40.00,0,-999,0,0.00
2013-5-18,80,72,59,-100,-100,-100,0,0,100,0.00,40.00,0,-999,0,0.00
2013-5-19,85,71,58,-100,-100,-100,0,0,100,0.00,40.00,0,-999,0,0.00
2013-5-20,75,63,57,-100,-100,-100,0,0,100,0.00,40.00,0,-999,0,0.00
2013-5-21,65,60,55,-100,-100,-100,0,0,100,0.00,40.00,0,-999,0,0.00
2013-5-22,59,55,50,-100,-100,-100,0,0,100,0.00,40.00,0,-999,0,0.00
2013-5-23,64,55,48,-100,-100,-100,0,0,100,0.00,40.00,0,-999,0,0.00
2013-5-24,68,57,42,-100,-100,-100,0,0,100,0.00,40.00,0,-999,0,0.00
2013-5-25,58,50,47,-100,-100,-100,0,0,100,0.00,40.00,0,-999,0,0.00
2013-5-26,55,51,47,-100,-100,-100,0,0,100,0.00,40.00,0,-999,0,0.00
2013-5-27,73,61,53,-100,-100,-100,0,0,100,0.00,40.00,0,-999,0,0.00
2013-5-28,76,68,60,-100,-100,-100,0,0,100,0.00,40.00,0,-999,0,0.00
2013-5-29,73,65,60,-100,-100,-100,0,0,100,0.00,40.00,0,-999,0,0.00
2013-5-30,69,65,62,-100,-100,-100,0,0,100,0.00,40.00,0,-999,0,0.00
2013-5-31,77,67,58,-100,-100,-100,0,0,100,0.00,40.00,0,-999,0,0.00
2013-6-1,65,59,53,-100,-100,-100,0,0,100,0.00,40.00,0,-999,0,0.00
2013-6-2,62,54,47,-100,-100,-100,0,0,100,0.00,40.00,0,-999,0,0.00
2013-6-3,69,59,45,-100,-100,-100,0,0,100,0.00,40.00,0,-999,0,0.00
2013-6-4,61,57,51,-100,-100,-100,0,0,100,0.00,40.00,0,-999,0,0.00
2013-6-5,66,59,54,-100,-100,-100,0,0,100,0.00,40.00,0,-999,0,0.00
2013-6-6,63,58,52,-100,-100,-100,0,0,100,0.00,40.00,0,-999,0,0.00
2013-6-7,69,56,48,-100,-100,-100,0,0,100,0.00,40.00,0,-999,0,0.00
2013-6-8,67,59,49,-100,-100,-100,0,0,100,0.00,40.00,0,-999,0,0.00
2013-6-9,70,62,58,-100,-100,-100,0,0,100,0.00,40.00,0,-999,0,0.00
2013-6-10,79,64,55,-100,-100,-100,0,0,100,0.00,40.00,0,-999,0,0.00
2013-6-11,85,73,62,-100,-100,-100,0,0,100,0.00,40.00,0,-999,0,0.00
2013-6-12,87,73,61,-100,-100,-100,0,0,100,0.00,40.00,0,-999,0,0.00
2013-6-13,82,69,57,-100,-100,-100,0,0,100,0.00,40.00,0,-999,0,0.00
2013-6-14,69,65,61,-100,-100,-100,0,0,100,0.00,40.00,0,-999,0,0.00
2013-6-15,80,68,61,-100,-100,-100,0,0,100,0.00,40.00,0,-999,0,0.00
2013-6-16,85,73,63,-100,-100,-100,0,0,100,0.00,40.00,0,-999,0,0.00
2013-6-17,87,74,61,-100,-100,-100,0,0,100,0.00,40.00,0,-999,0,0.00
2013-6-18,80,70,60,-100,-100,-100,0,0,100,0.00,40.00,0,-999,0,0.00
2013-6-19,83,72,61,-100,-100,-100,0,0,100,0.00,40.00,0,-999,0,0.00
2013-6-20,85,72,64,-100,-100,-100,0,0,100,0.00,40.00,0,-999,0,0.00
2013-6-22,90,83,73,-100,-100,-100,0,0,100,0.00,40.00,0,-999,0,0.00
2013-6-23,80,73,64,-100,-100,-100,0,0,100,0.00,40.00,0,-999,0,0.00
2013-6-24,73,69,65,-100,-100,-100,0,0,100,0.00,40.00,0,-999,0,0.00
2013-6-25,88,74,65,-100,-100,-100,0,0,100,0.00,40.00,0,-999,0,0.00
2013-6-26,87,79,71,-100,-100,-100,0,0,100,0.00,40.00,0,-999,0,0.00
2013-6-27,83,74,66,-100,-100,-100,0,0,100,0.00,40.00,0,-999,0,0.00
2013-6-28,80,71,64,-100,-100,-100,0,0,100,0.00,40.00,0,-999,0,0.00
2013-6-29,70,65,60,-100,-100,-100,0,0,100,0.00,40.00,0,-999,0,0.00
2013-6-30,76,63,54,-100,-100,-100,0,0,100,0.00,40.00,0,-999,0,0.00
2013-7-1,80,67,53,-100,-100,-100,0,0,100,0.00,40.00,0,-999,0,0.00
2013-7-2,81,66,54,-100,-100,-100,0,0,100,0.00,40.00,0,-999,0,0.00
2013-7-3,83,68,54,-100,-100,-100,0,0,100,0.00,40.00,0,-999,0,0.00
2013-7-4,87,73,60,-100,-100,-100,0,0,100,0.00,40.00,0,-999,0,0.00
2013-7-5,86,72,61,-100,-100,-100,0,0,100,0.00,40.00,0,-999,0,0.00
2013-7-6,89,74,65,-100,-100,-100,0,0,100,0.00,40.00,0,-999,0,0.00
2013-7-7,92,81,72,-100,-100,-100,0,0,100,0.00,40.00,0,-999,0,0.00
2013-7-8,90,78,73,-100,-100,-100,0,0,100,0.00,40.00,0,-999,0,0.00
2013-7-9,93,78,72,-100,-100,-100,0,0,100,0.00,40.00,0,-999,0,0.00
2013-7-10,82,72,64,-100,-100,-100,0,0,100,0.00,40.00,0,-999,0,0.00
2013-7-11,83,70,58,-100,-100,-100,0,0,100,0.00,40.00,0,-999,0,0.00
2013-7-12,83,72,61,-100,-100,-100,0,0,100,0.00,40.00,0,-999,0,0.00
2013-7-13,75,70,64,-100,-100,-100,0,0,100,0.00,40.00,0,-999,0,0.00
2013-7-14,83,73,62,-100,-100,-100,0,0,100,0.00,40.00,0,-999,0,0.00
2013-7-15,86,72,62,-100,-100,-100,0,0,100,0.00,40.00,0,-999,0,0.00
2013-7-16,91,82,70,-100,-100,-100,0,0,100,0.00,40.00,0,-999,0,0.00
2013-7-17,95,84,71,-100,-100,-100,0,0,100,0.00,40.00,0,-999,0,0.00
2013-7-18,91,83,72,-100,-100,-100,0,0,100,0.00,40.00,0,-999,0,0.00
2013-7-19,94,81,69,-100,-100,-100,0,0,100,0.00,40.00,0,-999,0,0.00
2013-7-20,91,76,59,-100,-100,-100,0,0,100,0.00,40.00,0,-999,0,0.00
2013-7-21,80,71,65,-100,-100,-100,0,0,100,0.00,40.00,0,-999,0,0.00
2013-7-22,92,77,62,-100,-100,-100,0,0,100,0.00,40.00,0,-999,0,0.00
2013-7-23,75,66,59,-100,-100,-100,0,0,100,0.00,40.00,0,-999,0,0.00
2013-7-24,78,67,54,-100,-100,-100,0,0,100,0.00,40.00,0,-999,0,0.00
2013-7-25,84,72,61,-100,-100,-100,0,0,100,0.00,40.00,0,-999,0,0.00
2013-7-26,74,67,60,-100,-100,-100,0,0,100,0.00,40.00,0,-999,0,0.00
2013-7-27,67,55,49,-100,-100,-100,0,0,100,0.00,40.00,0,-999,0,0.00
2013-7-28,73,62,46,-100,-100,-100,0,0,100,0.00,40.00,0,-999,0,0.00
2013-7-29,71,61,48,-100,-100,-100,0,0,100,0.00,40.00,0,-999,0,0.00
2013-7-30,68,64,60,-100,-100,-100,0,0,100,0.00,40.00,0,-999,0,0.00
2013-7-31,82,69,62,-100,-100,-100,0,0,100,0.00,40.00,0,-999,0,0.00
2013-8-1,87,70,57,-100,-100,-100,0,0,100,0.00,40.00,0,-999,0,0.00
2013-8-2,82,68,62,-100,-100,-100,0,0,100,0.00,40.00,0,-999,0,0.00
2013-8-3,78,67,56,-100,-100,-100,0,0,100,0.00,40.00,0,-999,0,0.00
2013-8-4,78,68,51,-100,-100,-100,0,0,100,0.00,40.00,0,-999,0,0.00
2013-8-5,83,73,63,-100,-100,-100,0,0,100,0.00,40.00,0,-999,0,0.00
2013-8-6,88,72,62,-100,-100,-100,0,0,100,0.00,40.00,0,-999,0,0.00
2013-8-7,74,68,62,-100,-100,-100,0,0,100,0.00,40.00,0,-999,0,0.00
2013-8-8,76,66,54,-100,-100,-100,0,0,100,0.00,40.00,0,-999,0,0.00
2013-8-9,76,69,62,-100,-100,-100,0,0,100,0.00,40.00,0,-999,0,0.00
2013-8-10,81,68,54,-100,-100,-100,0,0,100,0.00,40.00,0,-999,0,0.00
2013-8-11,82,72,62,-100,-100,-100,0,0,100,0.00,40.00,0,-999,0,0.00
2013-8-12,79,67,62,-100,-100,-100,0,0,100,0.00,40.00,0,-999,0,0.00
2013-8-13,76,65,54,-100,-100,-100,0,0,100,0.00,40.00,0,-999,0,0.00
2013-8-14,76,62,51,-100,-100,-100,0,0,100,0.00,40.00,0,-999,0,0.00
2013-8-15,69,63,58,-100,-100,-100,0,0,100,0.00,40.00,0,-999,0,0.00
2013-8-16,76,64,49,-100,-100,-100,0,0,100,0.00,40.00,0,-999,0,0.00
2013-8-17,80,64,50,-100,-100,-100,0,0,100,0.00,40.00,0,-999,0,0.00
2013-8-18,82,68,55,-100,-100,-100,0,0,100,0.00,40.00,0,-999,0,0.00
2013-8-19,83,70,59,-100,-100,-100,0,0,100,0.00,40.00,0,-999,0,0.00
2013-8-20,88,77,66,-100,-100,-100,0,0,100,0.00,40.00,0,-999,0,0.00
2013-8-21,88,79,69,-100,-100,-100,0,0,100,0.00,40.00,0,-999,0,0.00
2013-8-22,87,76,68,-100,-100,-100,0,0,100,0.00,40.00,0,-999,0,0.00
2013-8-23,83,74,64,-100,-100,-100,0,0,100,0.00,40.00,0,-999,0,0.00
2013-8-24,88,76,66,-100,-100,-100,0,0,100,0.00,40.00,0,-999,0,0.00
2013-8-25,92,80,69,-100,-100,-100,0,0,100,0.00,40.00,0,-999,0,0.00
2013-8-26,94,80,71,-100,-100,-100,0,0,100,0.00,40.00,0,-999,0,0.00
2013-8-27,93,78,73,-100,-100,-100,0,0,100,0.00,40.00,0,-999,0,0.00
2013-8-28,96,90,76,-100,-100,-100,0,0,100,0.00,40.00,0,-999,0,0.00
2013-8-29,93,80,69,-100,-100,-100,0,0,100,0.00,40.00,0,-999,0,0.00
2013-8-30,98,82,70,-100,-100,-100,0,0,100,0.00,40.00,0,-999,0,0.00
2013-8-31,92,77,64,-100,-100,-100,0,0,100,0.00,40.00,0,-999,0,0.00
2013-9-1,78,71,59,-100,-100,-100,0,0,100,0.00,40.00,0,-999,0,0.00
2013-9-2,75,62,52,-100,-100,-100,0,0,100,0.00,40.00,0,-999,0,0.00
2013-9-3,82,67,44,-100,-100,-100,0,0,100,0.00,40.00,0,-999,0,0.00
2013-9-4,89,72,58,-100,-100,-100,0,0,100,0.00,40.00,0,-999,0,0.00
2013-9-5,89,76,65,-100,-100,-100,0,0,100,0.00,40.00,0,-999,0,0.00
2013-9-6,90,77,64,-100,-100,-100,0,0,100,0.00,40.00,0,-999,0,0.00
2013-9-7,91,79,69,-100,-100,-100,0,0,100,0.00,40.00,0,-999,0,0.00
2013-9-8,82,72,66,-100,-100,-100,0,0,100,0.00,40.00,0,-999,0,0.00
2013-9-9,98,81,67,-100,-100,-100,0,0,100,0.00,40.00,0,-999,0,0.00
2013-9-10,94,80,66,-100,-100,-100,0,0,100,0.00,40.00,0,-999,0,0.00
2013-9-11,87,74,66,-100,-100,-100,0,0,100,0.00,40.00,0,-999,0,0.00
2013-9-12,73,64,55,-100,-100,-100,0,0,100,0.00,40.00,0,-999,0,0.00
2013-9-13,73,58,44,-100,-100,-100,0,0,100,0.00,40.00,0,-999,0,0.00
2013-9-14,75,63,46,-100,-100,-100,0,0,100,0.00,40.00,0,-999,0,0.00
2013-9-15,66,63,58,-100,-100,-100,0,0,100,0.00,40.00,0,-999,0,0.00
2013-9-16,65,56,49,-100,-100,-100,0,0,100,0.00,40.00,0,-999,0,0.00
2013-9-17,60,54,51,-100,-100,-100,0,0,100,0.00,40.00,0,-999,0,0.00
2013-9-18,76,66,62,-100,-100,-100,0,0,100,0.00,40.00,0,-999,0,0.00
2013-9-19,80,72,64,-100,-100,-100,0,0,100,0.00,40.00,0,-999,0,0.00
2013-9-20,63,57,50,-100,-100,-100,0,0,100,0.00,40.00,0,-999,0,0.00
2013-9-21,72,56,42,-100,-100,-100,0,0,100,0.00,40.00,0,-999,0,0.00
2013-9-22,76,59,47,-100,-100,-100,0,0,100,0.00,40.00,0,-999,0,0.00
2013-9-23,74,62,47,-100,-100,-100,0,0,100,0.00,40.00,0,-999,0,0.00
2013-9-24,76,59,52,-100,-100,-100,0,0,100,0.00,40.00,0,-999,0,0.00
2013-9-25,75,60,47,-100,-100,-100,0,0,100,0.00,40.00,0,-999,0,0.00
2013-9-26,81,67,55,-100,-100,-100,0,0,100,0.00,40.00,0,-999,0,0.00
2013-9-27,84,72,60,-100,-100,-100,0,0,100,0.00,40.00,0,-999,0,0.00
2013-9-28,68,60,50,-100,-100,-100,0,0,100,0.00,40.00,0,-999,0,0.00
2013-9-29,74,60,46,-100,-100,-100,0,0,100,0.00,40.00,0,-999,0,0.00
2013-9-30,75,62,48,-100,-100,-100,0,0,100,0.00,40.00,0,-999,0,0.00
2013-10-1,70,64,59,-100,-100,-100,0,0,100,0.00,40.00,0,-999,0,0.00
2013-10-2,82,66,52,-100,-100,-100,0,0,100,0.00,40.00,0,-999,0,0.00
2013-10-3,80,70,62,-100,-100,-100,0,0,100,0.00,40.00,0,-999,0,0.00
2013-10-4,72,64,59,-100,-100,-100,0,0,100,0.00,40.00,0,-999,0,0.00
2013-10-5,69,52,44,-100,-100,-100,0,0,100,0.00,40.00,0,-999,0,0.00
2013-10-6,47,44,40,-100,-100,-100,0,0,100,0.00,40.00,0,-999,0,0.00
2013-10-7,72,53,40,-100,-100,-100,0,0,100,0.00,40.00,0,-999,0,0.00
2013-10-8,75,60,46,-100,-100,-100,0,0,100,0.00,40.00,0,-999,0,0.00
2013-10-9,73,60,47,-100,-100,-100,0,0,100,0.00,40.00,0,-999,0,0.00
2013-10-10,76,58,47,-100,-100,-100,0,0,100,0.00,40.00,0,-999,0,0.00
2013-10-11,69,61,51,-100,-100,-100,0,0,100,0.00,40.00,0,-999,0,0.00
2013-10-12,64,54,46,-100,-100,-100,0,0,100,0.00,40.00,0,-999,0,0.00
2013-10-13,66,48,36,-100,-100,-100,0,0,100,0.00,40.00,0,-999,0,0.00
2013-10-14,60,49,39,-100,-100,-100,0,0,100,0.00,40.00,0,-999,0,0.00
2013-10-15,55,48,43,-100,-100,-100,0,0,100,0.00,40.00,0,-999,0,0.00
2013-10-16,47,44,40,-100,-100,-100,0,0,100,0.00,40.00,0,-999,0,0.00
2013-10-17,59,45,36,-100,-100,-100,0,0,100,0.00,40.00,0,-999,0,0.00
2013-10-18,50,43,35,-100,-100,-100,0,0,100,0.00,40.00,0,-999,0,0.00
2013-10-19,53,42,32,-100,-100,-100,0,0,100,0.00,40.00,0,-999,0,0.00
2013-10-20,59,45,36,-100,-100,-100,0,0,100,0.00,40.00,0,-999,0,0.00
2013-10-21,49,39,29,-100,-100,-100,0,0,100,0.00,40.00,0,-999,0,0.00
2013-10-22,39,36,32,-100,-100,-100,0,0,100,0.00,40.00,0,-999,0,0.00
2013-10-23,40,35,29,-100,-100,-100,0,0,100,0.00,40.00,0,-999,0,0.00
2013-10-24,43,34,27,-100,-100,-100,0,0,100,0.00,40.00,0,-999,0,0.00
2013-10-25,53,40,27,-100,-100,-100,0,0,100,0.00,40.00,0,-999,0,0.00
2013-10-26,48,41,33,-100,-100,-100,0,0,100,0.00,40.00,0,-999,0,0.00
2013-10-27,60,42,28,-100,-100,-100,0,0,100,0.00,40.00,0,-999,0,0.00
2013-10-28,49,40,32,-100,-100,-100,0,0,100,0.00,40.00,0,-999,0,0.00
2013-10-29,53,45,36,-100,-100,-100,0,0,100,0.00,40.00,0,-999,0,0.00
2013-10-30,62,52,48,-100,-100,-100,0,0,100,0.00,40.00,0,-999,0,0.00
2013-10-31,54,43,39,-100,-100,-100,0,0,100,0.00,40.00,0,-999,0,0.00
2013-11-1,51,43,37,-100,-100,-100,0,0,100,0.00,40.00,0,-999,0,0.00
2013-11-2,51,42,38,-100,-100,-100,0,0,100,0.00,40.00,0,-999,0,0.00
2013-11-3,52,42,31,-100,-100,-100,0,0,100,0.00,40.00,0,-999,0,0.00
2013-11-4,51,45,36,-100,-100,-100,0,0,100,0.00,40.00,0,-999,0,0.00
2013-11-5,47,41,35,-100,-100,-100,0,0,100,0.00,40.00,0,-999,0,0.00
2013-11-6,41,34,29,-100,-100,-100,0,0,100,0.00,40.00,0,-999,0,0.00
2013-11-7,43,33,28,-100,-100,-100,0,0,100,0.00,40.00,0,-999,0,0.00
2013-11-8,55,40,24,-100,-100,-100,0,0,100,0.00,40.00,0,-999,0,0.00
2013-11-9,52,43,34,-100,-100,-100,0,0,100,0.00,40.00,0,-999,0,0.00
2013-11-10,44,36,25,-100,-100,-100,0,0,100,0.00,40.00,0,-999,0,0.00
2013-11-11,44,28,13,-100,-100,-100,0,0,100,0.00,40.00,0,-999,0,0.00
2013-11-12,27,19,7,-100,-100,-100,0,0,100,0.00,40.00,0,-999,0,0.00
2013-11-13,47,31,18,-100,-100,-100,0,0,100,0.00,40.00,0,-999,0,0.00
2013-11-14,50,40,32,-100,-100,-100,0,0,100,0.00,40.00,0,-999,0,0.00
2013-11-15,52,41,27,-100,-100,-100,0,0,100,0.00,40.00,0,-999,0,0.00
2013-11-16,61,51,38,-100,-100,-100,0,0,100,0.00,40.00,0,-999,0,0.00
2013-11-17,51,43,36,-100,-100,-100,0,0,100,0.00,40.00,0,-999,0,0.00
2013-11-18,42,34,29,-100,-100,-100,0,0,100,0.00,40.00,0,-999,0,0.00
2013-11-19,49,36,28,-100,-100,-100,0,0,100,0.00,40.00,0,-999,0,0.00
2013-11-20,43,38,36,-100,-100,-100,0,0,100,0.00,40.00,0,-999,0,0.00
2013-11-21,35,29,21,-100,-100,-100,0,0,100,0.00,40.00,0,-999,0,0.00
2013-11-22,22,16,7,-100,-100,-100,0,0,100,0.00,40.00,0,-999,0,0.00
2013-11-23,14,10,4,-100,-100,-100,0,0,100,0.00,40.00,0,-999,0,0.00
2013-11-24,24,14,4,-100,-100,-100,0,0,100,0.00,40.00,0,-999,0,0.00
2013-11-25,34,27,20,-100,-100,-100,0,0,100,0.00,40.00,0,-999,0,0.00
2013-11-26,27,20,10,-100,-100,-100,0,0,100,0.00,40.00,0,-999,0,0.00
2013-11-27,23,17,6,-100,-100,-100,0,0,100,0.00,40.00,0,-999,0,0.00
2013-11-28,29,21,15,-100,-100,-100,0,0,100,0.00,40.00,0,-999,0,0.00
2013-11-29,34,23,10,-100,-100,-100,0,0,100,0.00,40.00,0,-999,0,0.00
2013-11-30,47,34,25,-100,-100,-100,0,0,100,0.00,40.00,0,-999,0,0.00
2013-12-1,37,29,22,-100,-100,-100,0,0,100,0.00,40.00,0,-999,0,0.00
2013-12-2,43,35,30,-100,-100,-100,0,0,100,0.00,40.00,0,-999,0,0.00
2013-12-3,36,34,31,-100,-100,-100,0,0,100,0.00,40.00,0,-999,0,0.00
2013-12-4,36,27,15,-100,-100,-100,0,0,100,0.00,40.00,0,-999,0,0.00
2013-12-5,14,9,4,-100,-100,-100,0,0,100,0.00,40.00,0,-999,0,0.00
2013-12-6,9,4,-3,-100,-100,-100,0,0,100,0.00,40.00,0,-999,0,0.00
2013-12-7,10,3,-5,-100,-100,-100,0,0,100,0.00,40.00,0,-999,0,0.00
2013-12-8,17,12,8,-100,-100,-100,0,0,100,0.00,40.00,0,-999,0,0.00
2013-12-9,12,2,-3,-100,-100,-100,0,0,100,0.00,40.00,0,-999,0,0.00
2013-12-10,20,14,3,-100,-100,-100,0,0,100,0.00,40.00,0,-999,0,0.00
2013-12-11,18,4,-4,-100,-100,-100,0,0,100,0.00,40.00,0,-999,0,0.00
2013-12-12,25,15,1,-100,-100,-100,0,0,100,0.00,40.00,0,-999,0,0.00
2013-12-13,27,20,14,-100,-100,-100,0,0,100,0.00,40.00,0,-999,0,0.00
2013-12-14,20,15,9,-100,-100,-100,0,0,100,0.00,40.00,0,-999,0,0.00
2013-12-15,12,10,7,-100,-100,-100,0,0,100,0.00,40.00,0,-999,0,0.00
2013-12-16,23,16,10,-100,-100,-100,0,0,100,0.00,40.00,0,-999,0,0.00
2013-12-17,31,25,18,-100,-100,-100,0,0,100,0.00,40.00,0,-999,0,0.00
2013-12-18,43,30,16,-100,-100,-100,0,0,100,0.00,40.00,0,-999,0,0.00
2013-12-19,32,27,21,-100,-100,-100,0,0,100,0.00,40.00,0,-999,0,0.00
2013-12-20,22,20,18,-100,-100,-100,0,0,100,0.00,40.00,0,-999,0,0.00
2013-12-21,21,18,14,-100,-100,-100,0,0,100,0.00,40.00,0,-999,0,0.00
2013-12-22,21,13,2,-100,-100,-100,0,0,100,0.00,40.00,0,-999,0,0.00
2013-12-23,4,-2,-7,-100,-100,-100,0,0,100,0.00,40.00,0,-999,0,0.00
2013-12-24,14,0,-11,-100,-100,-100,0,0,100,0.00,40.00,0,-999,0,0.00
2013-12-25,29,21,16,-100,-100,-100,0,0,100,0.00,40.00,0,-999,0,0.00
2013-12-26,34,26,18,-100,-100,-100,0,0,100,0.00,40.00,0,-999,0,0.00
2013-12-27,42,30,18,-100,-100,-100,0,0,100,0.00,40.00,0,-999,0,0.00
2013-12-28,47,34,22,-100,-100,-100,0,0,100,0.00,40.00,0,-999,0,0.00
2013-12-29,22,6,-2,-100,-100,-100,0,0,100,0.00,40.00,0,-999,0,0.00
2013-12-30,10,4,-3,-100,-100,-100,0,0,100,0.00,40.00,0,-999,0,0.00
2013-12-31,8,6,3,-100,-100,-100,0,0,100,0.00,40.00,0,-999,0,0.00
2014-1-1,7,3,1,-100,-100,-100,0,0,100,0.00,40.00,0,-999,0,0.00
2014-1-2,3,-2,-7,-100,-100,-100,0,0,100,0.00,40.00,0,-999,0,0.00